Terminal Aerodrome Forecast
Issued by NWS

Home | Current Version | Previous Version | Text Only | Print | Product List | Glossary On
Versions: 1 2 3 4 5 6 7 8 9 10 11 12 13 14 15 16 17 18
038
FTUS43 KAPX 182055 AAC
TAFTVC
TAF AMD
KTVC 182055Z 1821/1918 22008G15KT P6SM BKN130
     FM190000 23013G23KT P6SM SCT025 BKN130
     FM190400 24009KT P6SM BKN015
     FM191400 22011KT P6SM SCT015
     FM191700 21013KT P6SM BKN015=

USA.gov is the U.S. government's official web portal to all federal, state and local government web resources and services.